Time;durP1;ratioP1;P1;durP2;ratioP2;P2;SDS_P1;SDS_P2;PMS_P1;PMS_P2;Temp;Humidity;BMP_temperature;BMP_pressure;BME280_temperature;BME280_humidity;BME280_pressure;Samples;Min_cycle;Max_cycle;Signal;HPM_P1;HPM_P2
2022/01/05 00:00:04;;;;;;;;;;;7.70;99.90;8.10;98690.00;;;;427230;22;83256;-89
2022/01/05 00:00:16;;;;;;;;;;;7.70;99.90;8.10;98692.00;;;;424187;22;91802;-89
2022/01/05 00:00:28;;;;;;;;;;;7.70;99.90;8.00;98688.00;;;;418027;23;83879;-89
2022/01/05 00:00:39;;;;;;;;;;;7.70;99.90;8.00;98695.00;;;;415479;23;91994;-89
2022/01/05 00:00:51;;;;;;;;;;;7.70;99.90;8.10;98693.00;;;;414572;23;83131;-89
2022/01/05 00:01:03;;;;;;;;;;;7.70;99.90;8.10;98690.00;;;;411764;23;92021;-90
2022/01/05 00:01:15;;;;;;;;;;;7.70;99.90;8.10;98692.00;;;;416227;23;83391;-89
2022/01/05 00:01:27;;;;;;;;;;;7.70;99.90;8.00;98692.00;;;;417449;23;90553;-89
2022/01/05 00:01:39;;;;;;;;;;;7.70;99.90;8.00;98696.00;;;;412371;23;82290;-89
2022/01/05 00:01:51;;;;;;;;;;;7.70;99.90;8.10;98685.00;;;;413868;23;90167;-90
2022/01/05 00:02:03;;;;;;;;;;;7.70;99.90;8.10;98689.00;;;;412245;23;83362;-90
2022/01/05 00:02:15;;;;;;;;;;;7.70;99.90;8.10;98695.00;;;;424323;22;87943;-89
2022/01/05 00:02:27;;;;;;;;;;;7.70;99.90;8.10;98696.00;;;;426837;22;83216;-89
2022/01/05 00:02:40;;;;;;;;;;;7.70;99.90;8.10;98696.00;;;;428565;22;90033;-90
2022/01/05 00:02:52;;;;;;;;;;;7.70;99.90;8.00;98687.00;;;;422635;23;82599;-89
2022/01/05 00:03:04;;;;;;;;;;;7.70;99.90;8.00;98698.00;;;;417835;23;87788;-89
2022/01/05 00:03:16;;;;;;;;;;;7.70;99.90;8.00;98695.00;;;;418336;23;83467;-89
2022/01/05 00:03:28;;;;;;;;;;;7.70;99.90;8.00;98692.00;;;;413782;23;91762;-89
2022/01/05 00:03:40;;;;;;;;;;;7.70;99.90;8.10;98692.00;;;;416618;23;82437;-90
2022/01/05 00:03:52;;;;;;;;;;;7.70;99.90;8.00;98689.00;;;;411392;23;92282;-89
2022/01/05 00:04:04;;;;;;;;;;;7.70;99.90;8.00;98693.00;;;;425097;22;82490;-90
2022/01/05 00:04:16;;;;;;;;;;;7.70;99.90;8.00;98691.00;;;;424577;22;91518;-89
2022/01/05 00:04:28;;;;;;;;;;;7.60;99.90;8.10;98690.00;;;;416699;23;83307;-89
2022/01/05 00:04:40;;;;;;;;;;;7.60;99.90;8.10;98689.00;;;;428707;22;92162;-89
2022/01/05 00:04:53;;;;;;;;;;;7.70;99.90;8.10;98689.00;;;;423117;23;82498;-89
2022/01/05 00:05:05;;;;;;;;;;;7.70;99.90;8.20;98695.00;;;;424578;22;88667;-90
2022/01/05 00:05:16;;;;;;;;;;;7.70;99.90;8.10;98684.00;;;;418566;23;83169;-89
2022/01/05 00:05:28;;;;;;;;;;;7.70;99.90;8.10;98692.00;;;;416080;22;91186;-90
2022/01/05 00:05:40;;;;;;;;;;;7.70;99.90;8.10;98694.00;;;;414332;23;82580;-90
2022/01/05 00:05:52;;;;;;;;;;;7.70;99.90;8.10;98693.00;;;;418116;23;91204;-90
2022/01/05 00:06:04;;;;;;;;;;;7.70;99.90;8.20;98680.00;;;;418294;23;83206;-89
2022/01/05 00:06:16;;;;;;;;;;;7.70;99.90;8.30;98692.00;;;;416128;23;91381;-89
2022/01/05 00:06:27;;;;;;;;;;;7.70;99.90;8.20;98694.00;;;;412614;23;83246;-89
2022/01/05 00:06:39;;;;;;;;;;;7.70;99.90;8.20;98686.00;;;;415744;23;91082;-90
2022/01/05 00:06:51;;;;;;;;;;;7.70;99.90;8.20;98699.00;;;;414602;23;83143;-90
2022/01/05 00:07:03;;;;;;;;;;;7.70;99.90;8.10;98699.00;;;;416032;23;91156;-90
2022/01/05 00:07:15;;;;;;;;;;;7.70;99.90;8.10;98692.00;;;;414666;23;83454;-90
2022/01/05 00:07:27;;;;;;;;;;;7.70;99.90;8.00;98696.00;;;;414121;23;91360;-90
2022/01/05 00:07:39;;;;;;;;;;;7.70;99.90;7.90;98694.00;;;;420304;23;83377;-89
2022/01/05 00:07:50;;;;;;;;;;;7.70;99.90;8.10;98701.00;;;;416041;23;90423;-90
2022/01/05 00:08:02;;;;;;;;;;;7.70;99.90;8.00;98707.00;;;;416514;23;82427;-89
2022/01/05 00:08:14;;;;;;;;;;;7.70;99.90;8.00;98706.00;;;;422189;23;91940;-90
2022/01/05 00:08:26;;;;;;;;;;;7.60;99.90;8.00;98699.00;;;;423028;23;82292;-90
2022/01/05 00:08:37;;;;;;;;;;;7.70;99.90;8.10;98698.00;;;;414095;23;92266;-89
2022/01/05 00:08:49;;;;;;;;;;;7.70;99.90;8.10;98706.00;;;;414611;23;83196;-90
2022/01/05 00:09:01;;;;;;;;;;;7.70;99.90;8.20;98698.00;;;;415640;23;91372;-89
2022/01/05 00:09:13;;;;;;;;;;;7.70;99.90;8.20;98700.00;;;;418304;23;83142;-90
2022/01/05 00:09:24;;;;;;;;;;;7.70;99.90;8.20;98707.00;;;;416273;23;87630;-90
2022/01/05 00:09:36;;;;;;;;;;;7.70;99.90;8.10;98693.00;;;;416071;23;83192;-89
2022/01/05 00:09:49;;;;;;;;;;;7.70;99.90;8.20;98703.00;;;;415811;23;90342;-90
2022/01/05 00:10:01;;;;;;;;;;;7.70;99.90;8.20;98702.00;;;;426891;22;83319;-89
2022/01/05 00:10:13;;;;;;;;;;;7.70;99.90;8.20;98706.00;;;;424683;22;90321;-89
2022/01/05 00:10:25;;;;;;;;;;;7.70;99.90;8.20;98694.00;;;;414468;23;82437;-90
2022/01/05 00:10:36;;;;;;;;;;;7.70;99.90;8.20;98696.00;;;;418175;23;91450;-89
2022/01/05 00:10:48;;;;;;;;;;;7.70;99.90;8.20;98704.00;;;;414483;23;83141;-89
2022/01/05 00:11:00;;;;;;;;;;;7.70;99.90;8.20;98695.00;;;;414127;23;89834;-90
2022/01/05 00:11:12;;;;;;;;;;;7.70;99.90;8.10;98690.00;;;;418771;23;83305;-89
2022/01/05 00:11:23;;;;;;;;;;;7.70;99.90;8.10;98700.00;;;;416215;23;92032;-90
2022/01/05 00:11:35;;;;;;;;;;;7.70;99.90;8.10;98694.00;;;;416782;23;83383;-89
2022/01/05 00:11:47;;;;;;;;;;;7.70;99.90;8.20;98695.00;;;;415765;23;92096;-90
2022/01/05 00:12:00;;;;;;;;;;;7.70;99.90;8.20;98688.00;;;;416815;23;83291;-90
2022/01/05 00:12:11;;;;;;;;;;;7.70;99.90;8.20;98688.00;;;;415857;23;91363;-89
2022/01/05 00:12:23;;;;;;;;;;;7.70;99.90;8.30;98687.00;;;;416889;23;83253;-90
2022/01/05 00:12:35;;;;;;;;;;;7.70;99.90;8.30;98686.00;;;;418319;23;91487;-89
2022/01/05 00:12:47;;;;;;;;;;;7.70;99.90;8.20;98690.00;;;;427109;22;83233;-89
2022/01/05 00:12:58;;;;;;;;;;;7.70;99.90;8.10;98695.00;;;;426285;22;91742;-89
2022/01/05 00:13:10;;;;;;;;;;;7.70;99.90;8.10;98697.00;;;;418901;23;83298;-90
2022/01/05 00:13:22;;;;;;;;;;;7.70;99.90;8.10;98691.00;;;;414128;23;87906;-89
2022/01/05 00:13:34;;;;;;;;;;;7.70;99.90;8.10;98686.00;;;;416739;23;82442;-90
2022/01/05 00:13:45;;;;;;;;;;;7.70;99.90;8.10;98690.00;;;;414361;23;91181;-89
2022/01/05 00:13:58;;;;;;;;;;;7.70;99.90;8.10;98696.00;;;;416428;23;82522;-90
2022/01/05 00:14:10;;;;;;;;;;;7.70;99.90;8.10;98689.00;;;;411843;23;91400;-90
2022/01/05 00:14:22;;;;;;;;;;;7.70;99.90;8.00;98679.00;;;;416402;23;83249;-89
2022/01/05 00:14:33;;;;;;;;;;;7.70;99.90;8.00;98691.00;;;;418184;23;91762;-89
2022/01/05 00:14:45;;;;;;;;;;;7.70;99.90;8.10;98692.00;;;;416715;23;82323;-89
2022/01/05 00:14:57;;;;;;;;;;;7.70;99.90;8.20;98685.00;;;;418147;23;91329;-89
2022/01/05 00:15:09;;;;;;;;;;;7.70;99.90;8.20;98691.00;;;;414377;23;83761;-89
2022/01/05 00:15:21;;;;;;;;;;;7.70;99.90;8.30;98686.00;;;;415960;23;91103;-90
2022/01/05 00:15:32;;;;;;;;;;;7.70;99.90;8.30;98688.00;;;;412394;23;83348;-90
2022/01/05 00:15:44;;;;;;;;;;;7.70;99.90;8.30;98683.00;;;;416317;23;90224;-89
2022/01/05 00:15:56;;;;;;;;;;;7.70;99.90;8.30;98681.00;;;;418471;23;82475;-90
2022/01/05 00:16:08;;;;;;;;;;;7.70;99.90;8.20;98685.00;;;;414297;23;88597;-90
2022/01/05 00:16:20;;;;;;;;;;;7.70;99.90;8.10;98692.00;;;;416551;23;83287;-89
2022/01/05 00:16:32;;;;;;;;;;;7.70;99.90;8.10;98682.00;;;;424108;22;91541;-90
2022/01/05 00:16:43;;;;;;;;;;;7.70;99.90;8.10;98681.00;;;;422880;23;82519;-89
2022/01/05 00:16:55;;;;;;;;;;;7.70;99.90;8.10;98688.00;;;;424324;22;89012;-90
2022/01/05 00:17:07;;;;;;;;;;;7.70;99.90;8.10;98684.00;;;;424527;22;83461;-90
2022/01/05 00:17:19;;;;;;;;;;;7.70;99.90;8.00;98681.00;;;;416145;23;90473;-89
2022/01/05 00:17:31;;;;;;;;;;;7.70;99.90;8.10;98691.00;;;;414420;23;83262;-90
2022/01/05 00:17:43;;;;;;;;;;;7.70;99.90;8.20;98682.00;;;;413940;23;91216;-89
2022/01/05 00:17:54;;;;;;;;;;;7.70;99.90;8.30;98680.00;;;;416482;23;82464;-89
2022/01/05 00:18:06;;;;;;;;;;;7.70;99.90;8.30;98682.00;;;;414131;23;90051;-90
2022/01/05 00:18:18;;;;;;;;;;;7.70;99.90;8.30;98676.00;;;;425109;22;83382;-90
2022/01/05 00:18:31;;;;;;;;;;;7.70;99.90;8.30;98677.00;;;;424671;22;91180;-89
2022/01/05 00:18:43;;;;;;;;;;;7.70;99.90;8.20;98681.00;;;;416538;23;83250;-89
2022/01/05 00:18:54;;;;;;;;;;;7.70;99.90;8.10;98683.00;;;;417836;23;91604;-89
2022/01/05 00:19:06;;;;;;;;;;;7.70;99.90;8.00;98678.00;;;;416807;23;83279;-89
2022/01/05 00:19:18;;;;;;;;;;;7.70;99.90;8.00;98678.00;;;;416215;23;91213;-89
2022/01/05 00:19:30;;;;;;;;;;;7.70;99.90;8.00;98682.00;;;;418600;23;82384;-89
2022/01/05 00:19:43;;;;;;;;;;;7.70;99.90;8.00;98677.00;;;;415907;23;89898;-89
2022/01/05 00:19:55;;;;;;;;;;;7.70;99.90;8.10;98684.00;;;;418838;23;83205;-89
2022/01/05 00:20:08;;;;;;;;;;;7.70;99.90;8.10;98681.00;;;;413928;23;91516;-89
2022/01/05 00:20:20;;;;;;;;;;;7.70;99.90;8.20;98678.00;;;;414644;23;82223;-89
2022/01/05 00:20:32;;;;;;;;;;;7.70;99.90;8.20;98680.00;;;;417581;23;91187;-89
2022/01/05 00:20:44;;;;;;;;;;;7.70;99.90;8.20;98674.00;;;;416451;23;83275;-89
2022/01/05 00:20:56;;;;;;;;;;;7.70;99.90;8.20;98678.00;;;;413920;23;91246;-89
2022/01/05 00:21:08;;;;;;;;;;;7.70;99.90;8.10;98675.00;;;;416662;23;83368;-89
2022/01/05 00:21:20;;;;;;;;;;;7.70;99.90;8.20;98678.00;;;;416245;23;91427;-90
2022/01/05 00:21:31;;;;;;;;;;;7.70;99.90;8.20;98679.00;;;;416498;22;82479;-89
2022/01/05 00:21:43;;;;;;;;;;;7.70;99.90;8.20;98678.00;;;;415947;23;91441;-89
2022/01/05 00:21:55;;;;;;;;;;;7.70;99.90;8.10;98680.00;;;;416434;22;83150;-90
2022/01/05 00:22:07;;;;;;;;;;;7.70;99.90;8.10;98680.00;;;;413811;23;91346;-90
2022/01/05 00:22:19;;;;;;;;;;;7.70;99.90;8.20;98684.00;;;;416588;23;83469;-89
2022/01/05 00:22:30;;;;;;;;;;;7.70;99.90;8.20;98682.00;;;;416188;23;91784;-90
2022/01/05 00:22:42;;;;;;;;;;;7.70;99.90;8.20;98682.00;;;;416786;23;83214;-89
2022/01/05 00:22:54;;;;;;;;;;;7.70;99.90;8.20;98682.00;;;;415962;23;89158;-89
2022/01/05 00:23:06;;;;;;;;;;;7.70;99.90;8.20;98681.00;;;;416258;23;83450;-90
2022/01/05 00:23:17;;;;;;;;;;;7.70;99.90;8.20;98683.00;;;;424736;22;89033;-89
2022/01/05 00:23:29;;;;;;;;;;;7.70;99.90;8.20;98676.00;;;;423057;23;82443;-90
2022/01/05 00:23:42;;;;;;;;;;;7.70;99.90;8.20;98680.00;;;;414273;23;90291;-89
2022/01/05 00:23:54;;;;;;;;;;;7.70;99.90;8.20;98678.00;;;;412816;23;83090;-89
2022/01/05 00:24:06;;;;;;;;;;;7.70;99.90;8.20;98682.00;;;;415936;23;90452;-89
2022/01/05 00:24:18;;;;;;;;;;;7.70;99.90;8.20;98678.00;;;;418570;23;83357;-90
2022/01/05 00:24:30;;;;;;;;;;;7.70;99.90;8.20;98672.00;;;;417971;23;89573;-89
2022/01/05 00:24:43;;;;;;;;;;;7.70;99.90;8.20;98667.00;;;;426992;22;83374;-90
2022/01/05 00:24:55;;;;;;;;;;;7.70;99.90;8.20;98672.00;;;;426748;22;90891;-89
2022/01/05 00:25:07;;;;;;;;;;;7.70;99.90;8.20;98674.00;;;;416495;22;83236;-89
2022/01/05 00:25:20;;;;;;;;;;;7.70;99.90;8.30;98674.00;;;;416323;23;88698;-89
2022/01/05 00:25:32;;;;;;;;;;;7.70;99.90;8.40;98676.00;;;;416339;23;83265;-89
2022/01/05 00:25:43;;;;;;;;;;;7.70;99.90;8.50;98670.00;;;;414263;23;90387;-90
2022/01/05 00:25:55;;;;;;;;;;;7.70;99.90;8.40;98675.00;;;;416731;23;82256;-89
2022/01/05 00:26:07;;;;;;;;;;;7.80;99.90;8.40;98669.00;;;;418204;23;90289;-89
2022/01/05 00:26:19;;;;;;;;;;;7.80;99.90;8.40;98666.00;;;;416639;22;83281;-89
2022/01/05 00:26:31;;;;;;;;;;;7.80;99.90;8.50;98669.00;;;;414071;22;91514;-89
2022/01/05 00:26:42;;;;;;;;;;;7.80;99.90;8.50;98671.00;;;;414882;23;82246;-89
2022/01/05 00:26:54;;;;;;;;;;;7.80;99.90;8.40;98666.00;;;;422319;23;88662;-89
2022/01/05 00:27:06;;;;;;;;;;;7.80;99.90;8.40;98668.00;;;;424719;22;83374;-90
2022/01/05 00:27:18;;;;;;;;;;;7.80;99.90;8.50;98660.00;;;;424254;22;91520;-89
2022/01/05 00:27:29;;;;;;;;;;;7.80;99.90;8.40;98665.00;;;;427272;22;83294;-89
2022/01/05 00:27:41;;;;;;;;;;;7.80;99.90;8.50;98668.00;;;;416229;23;89521;-89
2022/01/05 00:27:53;;;;;;;;;;;7.80;99.90;8.40;98660.00;;;;414779;23;83287;-89
2022/01/05 00:28:05;;;;;;;;;;;7.80;99.90;8.40;98662.00;;;;416189;23;90789;-89
2022/01/05 00:28:17;;;;;;;;;;;7.80;99.90;8.40;98665.00;;;;414712;23;83335;-89
2022/01/05 00:28:28;;;;;;;;;;;7.90;99.90;8.30;98663.00;;;;415841;23;92272;-89
2022/01/05 00:28:40;;;;;;;;;;;7.80;99.90;8.40;98656.00;;;;416337;23;83229;-89
2022/01/05 00:28:52;;;;;;;;;;;7.80;99.90;8.40;98665.00;;;;416216;23;91233;-89
2022/01/05 00:29:04;;;;;;;;;;;7.80;99.90;8.40;98658.00;;;;425070;22;82341;-89
2022/01/05 00:29:16;;;;;;;;;;;7.80;99.90;8.30;98663.00;;;;414242;23;90980;-89
2022/01/05 00:29:27;;;;;;;;;;;7.80;99.90;8.30;98666.00;;;;414724;23;83294;-89
2022/01/05 00:29:39;;;;;;;;;;;7.80;99.90;8.30;98662.00;;;;417906;23;91503;-89
2022/01/05 00:29:51;;;;;;;;;;;7.80;99.90;8.20;98659.00;;;;418483;23;82750;-89
2022/01/05 00:30:03;;;;;;;;;;;7.70;99.90;8.30;98660.00;;;;416156;23;91311;-89
2022/01/05 00:30:15;;;;;;;;;;;7.70;99.90;8.30;98659.00;;;;416662;23;83378;-89
2022/01/05 00:30:27;;;;;;;;;;;7.80;99.90;8.30;98667.00;;;;416076;23;91290;-89
2022/01/05 00:30:38;;;;;;;;;;;7.70;99.90;8.40;98666.00;;;;416791;23;83358;-90
2022/01/05 00:30:50;;;;;;;;;;;7.70;99.90;8.40;98662.00;;;;412295;23;90851;-89
2022/01/05 00:31:02;;;;;;;;;;;7.70;99.90;8.40;98660.00;;;;416508;23;83216;-89
2022/01/05 00:31:14;;;;;;;;;;;7.70;99.90;8.40;98660.00;;;;416165;23;91336;-89
2022/01/05 00:31:25;;;;;;;;;;;7.80;99.90;8.30;98658.00;;;;414409;23;82484;-89
2022/01/05 00:31:38;;;;;;;;;;;7.80;99.90;8.40;98661.00;;;;419883;23;91094;-89
2022/01/05 00:31:49;;;;;;;;;;;7.70;99.90;8.40;98657.00;;;;416353;23;83412;-88
2022/01/05 00:32:01;;;;;;;;;;;7.80;99.90;8.30;98659.00;;;;422525;23;90430;-89
2022/01/05 00:32:13;;;;;;;;;;;7.80;99.90;8.20;98660.00;;;;425109;22;82330;-89
2022/01/05 00:32:25;;;;;;;;;;;7.80;99.90;8.20;98662.00;;;;424198;22;92552;-89
2022/01/05 00:32:37;;;;;;;;;;;7.80;99.90;8.20;98664.00;;;;422863;23;83375;-89
2022/01/05 00:32:49;;;;;;;;;;;7.80;99.90;8.20;98663.00;;;;411900;23;91446;-89
2022/01/05 00:33:01;;;;;;;;;;;7.80;99.90;8.30;98661.00;;;;425201;22;82979;-89
2022/01/05 00:33:15;;;;;;;;;;;7.80;99.90;8.40;98664.00;;;;424363;22;91285;-89
2022/01/05 00:33:27;;;;;;;;;;;7.80;99.90;8.40;98657.00;;;;429343;22;82397;-89
2022/01/05 00:33:38;;;;;;;;;;;7.80;99.90;8.40;98660.00;;;;424627;22;91356;-90
2022/01/05 00:33:50;;;;;;;;;;;7.80;99.90;8.40;98656.00;;;;416479;23;83404;-89
2022/01/05 00:34:02;;;;;;;;;;;7.80;99.90;8.40;98654.00;;;;416186;23;87792;-89
2022/01/05 00:34:14;;;;;;;;;;;7.80;99.90;8.40;98657.00;;;;428950;22;83157;-89
2022/01/05 00:34:25;;;;;;;;;;;7.80;99.90;8.40;98660.00;;;;424286;22;91935;-89
2022/01/05 00:34:37;;;;;;;;;;;7.90;99.90;8.40;98662.00;;;;414855;23;82226;-90
2022/01/05 00:34:49;;;;;;;;;;;7.80;99.90;8.50;98661.00;;;;414313;23;88132;-89
2022/01/05 00:35:01;;;;;;;;;;;7.90;99.90;8.50;98663.00;;;;416745;23;83290;-89
2022/01/05 00:35:12;;;;;;;;;;;7.90;99.90;8.50;98661.00;;;;415878;23;91706;-90
2022/01/05 00:35:24;;;;;;;;;;;7.90;99.90;8.40;98658.00;;;;416359;23;83298;-89
2022/01/05 00:35:36;;;;;;;;;;;7.90;99.90;8.40;98658.00;;;;416216;23;90406;-89
2022/01/05 00:35:48;;;;;;;;;;;7.90;99.90;8.40;98660.00;;;;420857;23;83185;-90
2022/01/05 00:35:59;;;;;;;;;;;7.90;99.90;8.40;98664.00;;;;416257;23;90112;-90
2022/01/05 00:36:11;;;;;;;;;;;7.90;99.90;8.40;98659.00;;;;418444;23;83309;-89
2022/01/05 00:36:23;;;;;;;;;;;7.90;99.90;8.40;98669.00;;;;415779;23;92140;-89
2022/01/05 00:36:35;;;;;;;;;;;7.90;99.90;8.40;98661.00;;;;414809;23;83101;-89
2022/01/05 00:36:46;;;;;;;;;;;7.90;99.90;8.30;98664.00;;;;416346;23;90595;-89
2022/01/05 00:36:58;;;;;;;;;;;7.90;99.90;8.30;98661.00;;;;416659;23;83232;-89
2022/01/05 00:37:10;;;;;;;;;;;7.90;99.90;8.30;98668.00;;;;412324;23;90881;-89
2022/01/05 00:37:22;;;;;;;;;;;7.90;99.90;8.30;98661.00;;;;418801;23;83329;-89
2022/01/05 00:37:34;;;;;;;;;;;7.90;99.90;8.20;98664.00;;;;416200;23;90265;-89
2022/01/05 00:37:46;;;;;;;;;;;7.90;99.90;8.30;98660.00;;;;416262;23;83140;-89
2022/01/05 00:37:57;;;;;;;;;;;7.90;99.90;8.30;98669.00;;;;418250;23;89081;-89
2022/01/05 00:38:09;;;;;;;;;;;7.90;99.90;8.40;98663.00;;;;427203;22;83246;-90
2022/01/05 00:38:21;;;;;;;;;;;7.90;99.90;8.40;98665.00;;;;413757;23;92805;-89
2022/01/05 00:38:34;;;;;;;;;;;7.90;99.90;8.40;98668.00;;;;418742;23;82503;-90
2022/01/05 00:38:46;;;;;;;;;;;7.90;99.90;8.30;98672.00;;;;414184;23;91833;-89
2022/01/05 00:38:58;;;;;;;;;;;7.90;99.90;8.30;98667.00;;;;418637;23;83360;-89
2022/01/05 00:39:09;;;;;;;;;;;7.90;99.90;8.40;98656.00;;;;416388;23;87577;-90
2022/01/05 00:39:21;;;;;;;;;;;7.90;99.90;8.40;98670.00;;;;416029;23;83457;-89
2022/01/05 00:39:33;;;;;;;;;;;7.90;99.90;8.40;98672.00;;;;422556;23;90884;-90
2022/01/05 00:39:45;;;;;;;;;;;7.90;99.90;8.40;98666.00;;;;424998;22;82473;-89
2022/01/05 00:39:57;;;;;;;;;;;7.90;99.90;8.30;98669.00;;;;426460;22;91454;-89
2022/01/05 00:40:09;;;;;;;;;;;7.90;99.90;8.30;98674.00;;;;425271;22;82920;-90
2022/01/05 00:40:21;;;;;;;;;;;7.90;99.90;8.40;98671.00;;;;414125;23;92093;-90
2022/01/05 00:40:33;;;;;;;;;;;7.90;99.90;8.40;98673.00;;;;416810;23;82399;-90
2022/01/05 00:40:44;;;;;;;;;;;7.90;99.90;8.40;98668.00;;;;419772;23;90962;-90
2022/01/05 00:40:56;;;;;;;;;;;7.90;99.90;8.40;98675.00;;;;416613;23;83164;-90
2022/01/05 00:41:08;;;;;;;;;;;7.90;99.90;8.50;98668.00;;;;418412;23;88981;-90
2022/01/05 00:41:20;;;;;;;;;;;7.90;99.90;8.40;98676.00;;;;416728;23;83209;-90
2022/01/05 00:41:31;;;;;;;;;;;7.90;99.90;8.40;98671.00;;;;416185;23;90268;-89
2022/01/05 00:41:44;;;;;;;;;;;7.90;99.90;8.30;98667.00;;;;418491;23;82420;-89
2022/01/05 00:41:55;;;;;;;;;;;7.90;99.90;8.30;98676.00;;;;416403;23;90854;-90
2022/01/05 00:42:07;;;;;;;;;;;7.90;99.90;8.30;98672.00;;;;416680;23;83250;-90
2022/01/05 00:42:19;;;;;;;;;;;7.90;99.90;8.30;98679.00;;;;417710;23;92385;-90
2022/01/05 00:42:31;;;;;;;;;;;7.80;99.90;8.40;98668.00;;;;412716;23;83121;-90
2022/01/05 00:42:43;;;;;;;;;;;7.80;99.90;8.30;98668.00;;;;424338;22;91709;-90
2022/01/05 00:42:55;;;;;;;;;;;7.90;99.90;8.20;98674.00;;;;424908;22;83244;-90
2022/01/05 00:43:06;;;;;;;;;;;7.80;99.90;8.20;98669.00;;;;418018;23;90191;-89
2022/01/05 00:43:18;;;;;;;;;;;7.80;99.90;8.30;98668.00;;;;416662;23;82416;-89
2022/01/05 00:43:30;;;;;;;;;;;7.80;99.90;8.40;98675.00;;;;414204;23;90214;-89
2022/01/05 00:43:42;;;;;;;;;;;7.80;99.90;8.40;98665.00;;;;427353;22;83293;-89
2022/01/05 00:43:54;;;;;;;;;;;7.80;99.90;8.30;98675.00;;;;426803;22;91386;-89
2022/01/05 00:44:06;;;;;;;;;;;7.80;99.90;8.30;98680.00;;;;426920;22;83159;-89
2022/01/05 00:44:19;;;;;;;;;;;7.80;99.90;8.20;98669.00;;;;422402;23;92104;-90
2022/01/05 00:44:30;;;;;;;;;;;7.80;99.90;8.20;98675.00;;;;412503;23;82504;-89
2022/01/05 00:44:42;;;;;;;;;;;7.80;99.90;8.40;98666.00;;;;422719;23;89995;-89
2022/01/05 00:44:54;;;;;;;;;;;7.80;99.90;8.40;98668.00;;;;426875;22;82465;-89
2022/01/05 00:45:07;;;;;;;;;;;7.80;99.90;8.50;98670.00;;;;413792;23;91039;-90
2022/01/05 00:45:18;;;;;;;;;;;7.80;99.90;8.50;98666.00;;;;414424;23;83417;-89
2022/01/05 00:45:30;;;;;;;;;;;7.90;99.90;8.40;98668.00;;;;416115;23;92078;-89
2022/01/05 00:45:42;;;;;;;;;;;7.90;99.90;8.40;98667.00;;;;416067;23;83367;-89
2022/01/05 00:45:54;;;;;;;;;;;7.90;99.90;8.50;98669.00;;;;422351;23;91776;-89
2022/01/05 00:46:07;;;;;;;;;;;7.90;99.90;8.40;98669.00;;;;424991;22;82456;-90
2022/01/05 00:46:19;;;;;;;;;;;7.90;99.90;8.50;98665.00;;;;415776;23;91768;-89
2022/01/05 00:46:30;;;;;;;;;;;7.80;99.90;8.40;98667.00;;;;429220;22;83239;-89
2022/01/05 00:46:42;;;;;;;;;;;7.80;99.90;8.30;98673.00;;;;426549;22;88757;-89
2022/01/05 00:46:54;;;;;;;;;;;7.90;99.90;8.20;98666.00;;;;418209;23;83510;-89
2022/01/05 00:47:06;;;;;;;;;;;7.80;99.90;8.40;98665.00;;;;415814;23;90848;-89
2022/01/05 00:47:18;;;;;;;;;;;7.80;99.90;8.30;98667.00;;;;418680;23;83305;-89
2022/01/05 00:47:30;;;;;;;;;;;7.80;99.90;8.30;98664.00;;;;416179;23;91121;-89
2022/01/05 00:47:41;;;;;;;;;;;7.80;99.90;8.30;98660.00;;;;427244;22;83476;-90
2022/01/05 00:47:53;;;;;;;;;;;7.80;99.90;8.20;98660.00;;;;414013;23;90429;-89
2022/01/05 00:48:05;;;;;;;;;;;7.80;99.90;8.20;98665.00;;;;427198;22;83409;-89
2022/01/05 00:48:17;;;;;;;;;;;7.80;99.90;8.30;98661.00;;;;418159;23;89641;-90
2022/01/05 00:48:34;;;;;;;;;;;7.80;99.90;8.20;98661.00;;;;416654;23;83180;-89
2022/01/05 00:48:46;;;;;;;;;;;7.80;99.90;8.30;98663.00;;;;415814;23;92116;-89
2022/01/05 00:48:58;;;;;;;;;;;7.80;99.90;8.30;98659.00;;;;416749;23;82432;-90
2022/01/05 00:49:09;;;;;;;;;;;7.80;99.90;8.30;98662.00;;;;415910;23;91553;-90
2022/01/05 00:49:21;;;;;;;;;;;7.80;99.90;8.30;98659.00;;;;412820;23;83316;-89
2022/01/05 00:49:33;;;;;;;;;;;7.80;99.90;8.40;98669.00;;;;414137;23;91358;-89
2022/01/05 00:49:45;;;;;;;;;;;7.80;99.90;8.30;98666.00;;;;414640;23;83491;-89
2022/01/05 00:49:57;;;;;;;;;;;7.80;99.90;8.40;98659.00;;;;416206;23;91802;-89
2022/01/05 00:50:09;;;;;;;;;;;7.80;99.90;8.30;98660.00;;;;416387;23;83742;-89
2022/01/05 00:50:20;;;;;;;;;;;7.80;99.90;8.30;98666.00;;;;418158;23;91201;-90
2022/01/05 00:50:32;;;;;;;;;;;7.80;99.90;8.40;98661.00;;;;416326;23;83494;-89
2022/01/05 00:50:44;;;;;;;;;;;7.80;99.90;8.30;98659.00;;;;413773;23;91617;-89
2022/01/05 00:50:58;;;;;;;;;;;7.80;99.90;8.30;98666.00;;;;424890;22;83347;-89
2022/01/05 00:51:10;;;;;;;;;;;7.80;99.90;8.40;98664.00;;;;424352;22;90908;-89
2022/01/05 00:51:22;;;;;;;;;;;7.80;99.90;8.40;98661.00;;;;414611;23;83363;-90
2022/01/05 00:51:34;;;;;;;;;;;7.80;99.90;8.30;98660.00;;;;416183;23;90243;-90
2022/01/05 00:51:45;;;;;;;;;;;7.80;99.90;8.30;98662.00;;;;416587;23;83329;-89
2022/01/05 00:51:57;;;;;;;;;;;7.80;99.90;8.50;98658.00;;;;415932;23;91563;-89
2022/01/05 00:52:09;;;;;;;;;;;7.80;99.90;8.50;98667.00;;;;416397;22;83459;-89
2022/01/05 00:52:21;;;;;;;;;;;7.80;99.90;8.50;98657.00;;;;424635;22;91148;-89
2022/01/05 00:52:32;;;;;;;;;;;7.80;99.90;8.50;98653.00;;;;414427;23;83558;-89
2022/01/05 00:52:44;;;;;;;;;;;7.90;99.90;8.50;98666.00;;;;414245;23;89092;-89
2022/01/05 00:53:00;;;;;;;;;;;7.90;99.90;8.40;98663.00;;;;414339;23;82436;-89
2022/01/05 00:53:12;;;;;;;;;;;7.80;99.90;8.30;98662.00;;;;413988;23;88827;-89
2022/01/05 00:53:24;;;;;;;;;;;7.80;99.90;8.40;98660.00;;;;427305;22;83212;-90
2022/01/05 00:53:36;;;;;;;;;;;7.90;99.90;8.30;98659.00;;;;426306;22;90757;-89
2022/01/05 00:53:48;;;;;;;;;;;7.90;99.90;8.30;98663.00;;;;414741;23;83485;-90
2022/01/05 00:53:59;;;;;;;;;;;7.80;99.90;8.20;98669.00;;;;416077;23;92203;-89
2022/01/05 00:54:11;;;;;;;;;;;7.80;99.90;8.20;98656.00;;;;416375;23;83294;-90
2022/01/05 00:54:23;;;;;;;;;;;7.80;99.90;8.30;98656.00;;;;413719;23;93068;-90
2022/01/05 00:54:35;;;;;;;;;;;7.80;99.90;8.20;98658.00;;;;429422;22;83408;-89
2022/01/05 00:54:47;;;;;;;;;;;7.80;99.90;8.20;98658.00;;;;424629;22;91272;-89
2022/01/05 00:54:58;;;;;;;;;;;7.80;99.90;8.20;98654.00;;;;424855;22;82457;-89
2022/01/05 00:55:10;;;;;;;;;;;7.80;99.90;8.20;98661.00;;;;422169;23;90507;-90
2022/01/05 00:55:22;;;;;;;;;;;7.80;99.90;8.30;98658.00;;;;414490;23;83347;-90
2022/01/05 00:55:34;;;;;;;;;;;7.80;99.90;8.30;98665.00;;;;418256;23;91456;-89
2022/01/05 00:55:46;;;;;;;;;;;7.80;99.90;8.20;98657.00;;;;416453;23;82307;-90
2022/01/05 00:55:58;;;;;;;;;;;7.80;99.90;8.20;98659.00;;;;415814;23;90347;-89
2022/01/05 00:56:10;;;;;;;;;;;7.80;99.90;8.20;98664.00;;;;412487;23;82441;-90
2022/01/05 00:56:21;;;;;;;;;;;7.80;99.90;8.20;98665.00;;;;415809;23;92335;-90
2022/01/05 00:56:33;;;;;;;;;;;7.80;99.90;8.10;98668.00;;;;418515;23;82322;-90
2022/01/05 00:56:45;;;;;;;;;;;7.80;99.90;8.10;98666.00;;;;417756;23;91240;-89
2022/01/05 00:56:57;;;;;;;;;;;7.80;99.90;8.20;98665.00;;;;416314;23;83267;-90
2022/01/05 00:57:08;;;;;;;;;;;7.80;99.90;8.30;98664.00;;;;415865;23;91801;-90
2022/01/05 00:57:21;;;;;;;;;;;7.80;99.90;8.40;98663.00;;;;418782;23;83285;-89
2022/01/05 00:57:33;;;;;;;;;;;7.80;99.90;8.30;98656.00;;;;414031;23;91340;-89
2022/01/05 00:57:45;;;;;;;;;;;7.80;99.90;8.20;98662.00;;;;425044;22;83332;-89
2022/01/05 00:57:57;;;;;;;;;;;7.80;99.90;8.10;98665.00;;;;424859;22;89195;-89
2022/01/05 00:58:09;;;;;;;;;;;7.80;99.90;8.10;98669.00;;;;414780;23;83412;-88
2022/01/05 00:58:21;;;;;;;;;;;7.80;99.90;8.10;98656.00;;;;414129;23;92142;-89
2022/01/05 00:58:33;;;;;;;;;;;7.80;99.90;8.10;98662.00;;;;414666;23;83301;-90
2022/01/05 00:58:44;;;;;;;;;;;7.80;99.90;8.10;98657.00;;;;412294;23;91416;-89
2022/01/05 00:58:56;;;;;;;;;;;7.80;99.90;8.10;98664.00;;;;414323;23;83178;-90
2022/01/05 00:59:08;;;;;;;;;;;7.80;99.90;8.10;98675.00;;;;426418;22;91217;-90
2022/01/05 00:59:20;;;;;;;;;;;7.80;99.90;8.20;98659.00;;;;414351;23;83245;-90
2022/01/05 00:59:31;;;;;;;;;;;7.70;99.90;8.20;98663.00;;;;415855;23;91471;-90
2022/01/05 00:59:44;;;;;;;;;;;7.80;99.90;8.30;98667.00;;;;424838;22;83423;-90
2022/01/05 00:59:56;;;;;;;;;;;7.80;99.90;8.30;98667.00;;;;416342;23;90382;-90
2022/01/05 01:00:08;;;;;;;;;;;7.80;99.90;8.40;98663.00;;;;422775;23;83361;-89
2022/01/05 01:00:20;;;;;;;;;;;7.70;99.90;8.40;98667.00;;;;422524;23;92191;-90
2022/01/05 01:00:32;;;;;;;;;;;7.80;99.90;8.30;98666.00;;;;412810;23;82601;-90